sensor_id;sensor_type;location;lat;lon;timestamp;temperature;humidity
59208;DHT22;44977;53.132;6.408;2023-02-28T00:03:04;4.50;99.90
59208;DHT22;44977;53.132;6.408;2023-02-28T00:08:05;4.60;99.90
59208;DHT22;44977;53.132;6.408;2023-02-28T00:13:06;4.60;99.90
59208;DHT22;44977;53.132;6.408;2023-02-28T00:18:07;4.60;99.90
59208;DHT22;44977;53.132;6.408;2023-02-28T00:23:08;4.60;99.90
59208;DHT22;44977;53.132;6.408;2023-02-28T00:28:08;4.60;99.90
59208;DHT22;44977;53.132;6.408;2023-02-28T00:33:09;4.60;99.90
59208;DHT22;44977;53.132;6.408;2023-02-28T00:38:10;4.50;99.90
59208;DHT22;44977;53.132;6.408;2023-02-28T00:43:11;4.50;99.90
59208;DHT22;44977;53.132;6.408;2023-02-28T00:48:11;4.50;99.90
59208;DHT22;44977;53.132;6.408;2023-02-28T00:53:12;4.50;99.90
59208;DHT22;44977;53.132;6.408;2023-02-28T00:58:13;4.50;99.90
59208;DHT22;44977;53.132;6.408;2023-02-28T01:03:14;4.50;99.90
59208;DHT22;44977;53.132;6.408;2023-02-28T01:08:15;4.50;99.90
59208;DHT22;44977;53.132;6.408;2023-02-28T01:13:16;4.50;99.90
59208;DHT22;44977;53.132;6.408;2023-02-28T01:18:17;4.50;99.90
59208;DHT22;44977;53.132;6.408;2023-02-28T01:23:19;4.50;99.90
59208;DHT22;44977;53.132;6.408;2023-02-28T01:28:21;4.50;99.90
59208;DHT22;44977;53.132;6.408;2023-02-28T01:33:22;4.50;99.90
59208;DHT22;44977;53.132;6.408;2023-02-28T01:38:23;4.50;99.90
59208;DHT22;44977;53.132;6.408;2023-02-28T01:48:51;4.50;99.90
59208;DHT22;44977;53.132;6.408;2023-02-28T01:53:56;4.60;99.90
59208;DHT22;44977;53.132;6.408;2023-02-28T01:58:58;4.60;99.90
59208;DHT22;44977;53.132;6.408;2023-02-28T02:04:02;4.50;99.90
59208;DHT22;44977;53.132;6.408;2023-02-28T02:09:04;4.60;99.90
59208;DHT22;44977;53.132;6.408;2023-02-28T02:25:23;4.50;99.90
59208;DHT22;44977;53.132;6.408;2023-02-28T02:36:03;4.50;99.90
59208;DHT22;44977;53.132;6.408;2023-02-28T02:41:16;4.50;99.90
59208;DHT22;44977;53.132;6.408;2023-02-28T02:46:45;4.50;99.90
59208;DHT22;44977;53.132;6.408;2023-02-28T02:51:47;4.50;99.90
59208;DHT22;44977;53.132;6.408;2023-02-28T02:56:49;4.50;99.90
59208;DHT22;44977;53.132;6.408;2023-02-28T03:01:56;4.50;99.90
59208;DHT22;44977;53.132;6.408;2023-02-28T03:06:57;4.50;99.90
59208;DHT22;44977;53.132;6.408;2023-02-28T03:11:58;4.50;99.90
59208;DHT22;44977;53.132;6.408;2023-02-28T03:43:40;4.60;99.90
59208;DHT22;44977;53.132;6.408;2023-02-28T03:48:50;4.60;99.90
59208;DHT22;44977;53.132;6.408;2023-02-28T03:53:59;4.60;99.90
59208;DHT22;44977;53.132;6.408;2023-02-28T03:59:13;4.50;99.90
59208;DHT22;44977;53.132;6.408;2023-02-28T04:04:16;4.50;99.90
59208;DHT22;44977;53.132;6.408;2023-02-28T04:09:17;4.50;99.90
59208;DHT22;44977;53.132;6.408;2023-02-28T04:14:18;4.40;99.90
59208;DHT22;44977;53.132;6.408;2023-02-28T04:19:19;4.40;99.90
59208;DHT22;44977;53.132;6.408;2023-02-28T04:24:27;4.40;99.90
59208;DHT22;44977;53.132;6.408;2023-02-28T04:29:29;4.30;99.90
59208;DHT22;44977;53.132;6.408;2023-02-28T04:34:31;4.30;99.90
59208;DHT22;44977;53.132;6.408;2023-02-28T04:39:35;4.20;99.90
59208;DHT22;44977;53.132;6.408;2023-02-28T04:44:36;4.10;99.90
59208;DHT22;44977;53.132;6.408;2023-02-28T04:49:37;4.10;99.90
59208;DHT22;44977;53.132;6.408;2023-02-28T04:54:38;4.10;99.90
59208;DHT22;44977;53.132;6.408;2023-02-28T04:59:39;4.00;99.90
59208;DHT22;44977;53.132;6.408;2023-02-28T05:04:40;3.90;99.90
59208;DHT22;44977;53.132;6.408;2023-02-28T05:09:40;3.90;99.90
59208;DHT22;44977;53.132;6.408;2023-02-28T05:14:41;3.80;99.90
59208;DHT22;44977;53.132;6.408;2023-02-28T05:19:42;3.80;99.90
59208;DHT22;44977;53.132;6.408;2023-02-28T05:24:42;3.80;99.90
59208;DHT22;44977;53.132;6.408;2023-02-28T05:29:43;3.70;99.90
59208;DHT22;44977;53.132;6.408;2023-02-28T05:34:44;3.70;99.90
59208;DHT22;44977;53.132;6.408;2023-02-28T05:39:44;3.70;99.90
59208;DHT22;44977;53.132;6.408;2023-02-28T05:44:45;3.70;99.90
59208;DHT22;44977;53.132;6.408;2023-02-28T05:49:46;3.60;99.90
59208;DHT22;44977;53.132;6.408;2023-02-28T05:54:47;3.60;99.90
59208;DHT22;44977;53.132;6.408;2023-02-28T05:59:48;3.50;99.90
59208;DHT22;44977;53.132;6.408;2023-02-28T06:04:48;3.50;99.90
59208;DHT22;44977;53.132;6.408;2023-02-28T06:09:49;3.50;99.90
59208;DHT22;44977;53.132;6.408;2023-02-28T06:14:50;3.50;99.90
59208;DHT22;44977;53.132;6.408;2023-02-28T06:19:50;3.50;99.90
59208;DHT22;44977;53.132;6.408;2023-02-28T06:24:51;3.50;99.90
59208;DHT22;44977;53.132;6.408;2023-02-28T06:29:56;3.50;99.90
59208;DHT22;44977;53.132;6.408;2023-02-28T06:34:56;3.50;99.90
59208;DHT22;44977;53.132;6.408;2023-02-28T06:39:58;3.50;99.90
59208;DHT22;44977;53.132;6.408;2023-02-28T06:44:59;3.40;99.90
59208;DHT22;44977;53.132;6.408;2023-02-28T06:50:00;3.40;99.90
59208;DHT22;44977;53.132;6.408;2023-02-28T06:55:02;3.30;99.90
59208;DHT22;44977;53.132;6.408;2023-02-28T07:00:08;3.20;99.90
59208;DHT22;44977;53.132;6.408;2023-02-28T07:05:09;3.20;99.90
59208;DHT22;44977;53.132;6.408;2023-02-28T07:10:13;3.20;99.90
59208;DHT22;44977;53.132;6.408;2023-02-28T07:15:17;3.20;99.90
59208;DHT22;44977;53.132;6.408;2023-02-28T07:20:17;3.20;99.90
59208;DHT22;44977;53.132;6.408;2023-02-28T07:25:18;3.10;99.90
59208;DHT22;44977;53.132;6.408;2023-02-28T07:30:19;3.10;99.90
59208;DHT22;44977;53.132;6.408;2023-02-28T07:35:19;3.10;99.90
59208;DHT22;44977;53.132;6.408;2023-02-28T07:40:20;3.10;99.90
59208;DHT22;44977;53.132;6.408;2023-02-28T07:45:21;3.10;99.90
59208;DHT22;44977;53.132;6.408;2023-02-28T07:50:22;3.10;99.90
59208;DHT22;44977;53.132;6.408;2023-02-28T07:55:23;3.10;99.90
59208;DHT22;44977;53.132;6.408;2023-02-28T08:00:24;3.10;99.90
59208;DHT22;44977;53.132;6.408;2023-02-28T08:05:24;3.10;99.90
59208;DHT22;44977;53.132;6.408;2023-02-28T08:10:25;3.10;99.90
59208;DHT22;44977;53.132;6.408;2023-02-28T08:15:26;3.10;99.90
59208;DHT22;44977;53.132;6.408;2023-02-28T08:20:27;3.20;99.90
59208;DHT22;44977;53.132;6.408;2023-02-28T08:25:28;3.20;99.90
59208;DHT22;44977;53.132;6.408;2023-02-28T08:30:28;3.20;99.90
59208;DHT22;44977;53.132;6.408;2023-02-28T08:35:29;3.30;99.90
59208;DHT22;44977;53.132;6.408;2023-02-28T08:40:30;3.40;99.90
59208;DHT22;44977;53.132;6.408;2023-02-28T08:45:30;3.40;99.90
59208;DHT22;44977;53.132;6.408;2023-02-28T08:50:31;3.50;99.90
59208;DHT22;44977;53.132;6.408;2023-02-28T08:55:32;3.50;99.90
59208;DHT22;44977;53.132;6.408;2023-02-28T09:00:32;3.60;99.90
59208;DHT22;44977;53.132;6.408;2023-02-28T09:05:33;3.60;99.90
59208;DHT22;44977;53.132;6.408;2023-02-28T09:10:34;3.70;99.90
59208;DHT22;44977;53.132;6.408;2023-02-28T09:15:37;3.80;99.90
59208;DHT22;44977;53.132;6.408;2023-02-28T09:20:39;3.80;99.90
59208;DHT22;44977;53.132;6.408;2023-02-28T09:25:51;3.80;99.90
59208;DHT22;44977;53.132;6.408;2023-02-28T09:30:54;3.90;99.90
59208;DHT22;44977;53.132;6.408;2023-02-28T09:35:59;4.10;99.90
59208;DHT22;44977;53.132;6.408;2023-02-28T09:41:11;4.20;99.90
59208;DHT22;44977;53.132;6.408;2023-02-28T09:46:32;4.40;99.90
59208;DHT22;44977;53.132;6.408;2023-02-28T09:51:45;4.60;99.90
59208;DHT22;44977;53.132;6.408;2023-02-28T09:57:36;4.80;99.90
59208;DHT22;44977;53.132;6.408;2023-02-28T10:12:32;5.90;99.90
59208;DHT22;44977;53.132;6.408;2023-02-28T10:17:44;6.20;99.90
59208;DHT22;44977;53.132;6.408;2023-02-28T10:28:05;6.70;99.90
59208;DHT22;44977;53.132;6.408;2023-02-28T10:38:22;7.00;99.90
59208;DHT22;44977;53.132;6.408;2023-02-28T10:43:24;7.10;99.90
59208;DHT22;44977;53.132;6.408;2023-02-28T10:48:32;7.30;99.90
59208;DHT22;44977;53.132;6.408;2023-02-28T10:53:37;7.50;99.90
59208;DHT22;44977;53.132;6.408;2023-02-28T10:59:01;7.50;99.90
59208;DHT22;44977;53.132;6.408;2023-02-28T11:04:04;7.60;99.90
59208;DHT22;44977;53.132;6.408;2023-02-28T11:14:35;7.90;99.90
59208;DHT22;44977;53.132;6.408;2023-02-28T11:19:45;8.00;99.90
59208;DHT22;44977;53.132;6.408;2023-02-28T11:24:50;8.10;99.90
59208;DHT22;44977;53.132;6.408;2023-02-28T11:29:52;8.30;99.90
59208;DHT22;44977;53.132;6.408;2023-02-28T11:35:21;8.50;99.90
59208;DHT22;44977;53.132;6.408;2023-02-28T11:40:39;8.50;99.90
59208;DHT22;44977;53.132;6.408;2023-02-28T11:57:43;8.80;99.90
59208;DHT22;44977;53.132;6.408;2023-02-28T12:02:24;8.90;99.90
59208;DHT22;44977;53.132;6.408;2023-02-28T12:29:24;9.10;97.90
59208;DHT22;44977;53.132;6.408;2023-02-28T12:34:31;8.90;97.20
59208;DHT22;44977;53.132;6.408;2023-02-28T12:39:38;8.80;98.50
59208;DHT22;44977;53.132;6.408;2023-02-28T12:44:51;8.80;96.80
59208;DHT22;44977;53.132;6.408;2023-02-28T12:50:07;8.80;93.40
59208;DHT22;44977;53.132;6.408;2023-02-28T13:01:21;8.80;94.40
59208;DHT22;44977;53.132;6.408;2023-02-28T13:06:41;8.80;94.60
59208;DHT22;44977;53.132;6.408;2023-02-28T13:11:46;8.90;92.50
59208;DHT22;44977;53.132;6.408;2023-02-28T13:21:57;8.60;93.80
59208;DHT22;44977;53.132;6.408;2023-02-28T14:04:33;8.60;93.50
59208;DHT22;44977;53.132;6.408;2023-02-28T14:19:37;8.40;93.00
59208;DHT22;44977;53.132;6.408;2023-02-28T14:25:08;8.30;91.50
59208;DHT22;44977;53.132;6.408;2023-02-28T14:40:47;8.20;90.80
59208;DHT22;44977;53.132;6.408;2023-02-28T14:45:54;8.10;92.10
59208;DHT22;44977;53.132;6.408;2023-02-28T14:51:00;8.20;92.90
59208;DHT22;44977;53.132;6.408;2023-02-28T14:56:01;8.20;92.30
59208;DHT22;44977;53.132;6.408;2023-02-28T15:01:03;8.20;92.30
59208;DHT22;44977;53.132;6.408;2023-02-28T15:06:15;8.20;92.60
59208;DHT22;44977;53.132;6.408;2023-02-28T15:11:19;8.20;91.50
59208;DHT22;44977;53.132;6.408;2023-02-28T15:21:31;8.20;91.90
59208;DHT22;44977;53.132;6.408;2023-02-28T15:26:41;8.20;92.40
59208;DHT22;44977;53.132;6.408;2023-02-28T15:31:45;8.10;91.70
59208;DHT22;44977;53.132;6.408;2023-02-28T15:36:46;8.10;90.70
59208;DHT22;44977;53.132;6.408;2023-02-28T15:41:47;8.00;90.80
59208;DHT22;44977;53.132;6.408;2023-02-28T15:47:04;7.90;90.90
59208;DHT22;44977;53.132;6.408;2023-02-28T15:52:05;7.90;91.70
59208;DHT22;44977;53.132;6.408;2023-02-28T15:57:07;7.80;91.50
59208;DHT22;44977;53.132;6.408;2023-02-28T16:02:19;7.70;92.20
59208;DHT22;44977;53.132;6.408;2023-02-28T16:07:21;7.70;90.40
59208;DHT22;44977;53.132;6.408;2023-02-28T16:12:25;7.60;90.10
59208;DHT22;44977;53.132;6.408;2023-02-28T16:17:30;7.40;90.80
59208;DHT22;44977;53.132;6.408;2023-02-28T16:22:31;7.40;90.40
59208;DHT22;44977;53.132;6.408;2023-02-28T16:27:36;7.20;90.70
59208;DHT22;44977;53.132;6.408;2023-02-28T16:32:37;7.10;91.70
59208;DHT22;44977;53.132;6.408;2023-02-28T16:37:38;7.00;92.50
59208;DHT22;44977;53.132;6.408;2023-02-28T16:42:40;7.00;93.30
59208;DHT22;44977;53.132;6.408;2023-02-28T16:47:41;6.90;93.60
59208;DHT22;44977;53.132;6.408;2023-02-28T16:52:42;6.80;94.70
59208;DHT22;44977;53.132;6.408;2023-02-28T16:57:43;6.70;94.80
59208;DHT22;44977;53.132;6.408;2023-02-28T17:02:45;6.60;95.40
59208;DHT22;44977;53.132;6.408;2023-02-28T17:07:46;6.50;97.50
59208;DHT22;44977;53.132;6.408;2023-02-28T17:12:47;6.40;97.80
59208;DHT22;44977;53.132;6.408;2023-02-28T17:17:48;6.30;99.20
59208;DHT22;44977;53.132;6.408;2023-02-28T17:22:50;6.20;99.90
59208;DHT22;44977;53.132;6.408;2023-02-28T17:27:51;6.10;99.90
59208;DHT22;44977;53.132;6.408;2023-02-28T17:32:51;6.00;99.90
59208;DHT22;44977;53.132;6.408;2023-02-28T17:37:52;5.90;99.90
59208;DHT22;44977;53.132;6.408;2023-02-28T17:42:53;5.80;99.90
59208;DHT22;44977;53.132;6.408;2023-02-28T17:47:55;5.70;99.90
59208;DHT22;44977;53.132;6.408;2023-02-28T17:52:56;5.60;99.90
59208;DHT22;44977;53.132;6.408;2023-02-28T17:57:56;5.50;99.90
59208;DHT22;44977;53.132;6.408;2023-02-28T18:02:57;5.40;99.90
59208;DHT22;44977;53.132;6.408;2023-02-28T18:07:58;5.20;99.90
59208;DHT22;44977;53.132;6.408;2023-02-28T18:12:59;5.10;99.90
59208;DHT22;44977;53.132;6.408;2023-02-28T18:17:59;5.00;99.90
59208;DHT22;44977;53.132;6.408;2023-02-28T18:23:00;4.80;99.90
59208;DHT22;44977;53.132;6.408;2023-02-28T18:28:01;4.80;99.90
59208;DHT22;44977;53.132;6.408;2023-02-28T18:33:03;4.60;99.90
59208;DHT22;44977;53.132;6.408;2023-02-28T18:38:15;4.50;99.90
59208;DHT22;44977;53.132;6.408;2023-02-28T18:43:17;4.40;99.90
59208;DHT22;44977;53.132;6.408;2023-02-28T18:48:18;4.30;99.90
59208;DHT22;44977;53.132;6.408;2023-02-28T18:53:19;4.30;99.90
59208;DHT22;44977;53.132;6.408;2023-02-28T18:58:19;4.20;99.90
59208;DHT22;44977;53.132;6.408;2023-02-28T19:03:20;4.20;99.90
59208;DHT22;44977;53.132;6.408;2023-02-28T19:08:22;4.10;99.90
59208;DHT22;44977;53.132;6.408;2023-02-28T19:13:22;4.10;99.90
59208;DHT22;44977;53.132;6.408;2023-02-28T19:18:23;4.00;99.90
59208;DHT22;44977;53.132;6.408;2023-02-28T19:23:25;4.00;99.90
59208;DHT22;44977;53.132;6.408;2023-02-28T19:28:29;3.90;99.90
59208;DHT22;44977;53.132;6.408;2023-02-28T19:33:30;3.80;99.90
59208;DHT22;44977;53.132;6.408;2023-02-28T19:38:31;3.80;99.90
59208;DHT22;44977;53.132;6.408;2023-02-28T19:43:31;3.70;99.90
59208;DHT22;44977;53.132;6.408;2023-02-28T19:48:32;3.60;99.90
59208;DHT22;44977;53.132;6.408;2023-02-28T19:53:33;3.60;99.90
59208;DHT22;44977;53.132;6.408;2023-02-28T19:58:35;3.50;99.90
59208;DHT22;44977;53.132;6.408;2023-02-28T20:03:36;3.40;99.90
59208;DHT22;44977;53.132;6.408;2023-02-28T20:08:37;3.30;99.90
59208;DHT22;44977;53.132;6.408;2023-02-28T20:13:38;3.20;99.90
59208;DHT22;44977;53.132;6.408;2023-02-28T20:18:39;3.20;99.90
59208;DHT22;44977;53.132;6.408;2023-02-28T20:23:40;3.10;99.90
59208;DHT22;44977;53.132;6.408;2023-02-28T20:28:42;3.00;99.90
59208;DHT22;44977;53.132;6.408;2023-02-28T20:33:44;2.90;99.90
59208;DHT22;44977;53.132;6.408;2023-02-28T20:38:44;2.90;99.90
59208;DHT22;44977;53.132;6.408;2023-02-28T20:43:45;2.80;99.90
59208;DHT22;44977;53.132;6.408;2023-02-28T20:48:46;2.70;99.90
59208;DHT22;44977;53.132;6.408;2023-02-28T20:53:47;2.70;99.90
59208;DHT22;44977;53.132;6.408;2023-02-28T20:58:51;2.60;99.90
59208;DHT22;44977;53.132;6.408;2023-02-28T21:03:54;2.50;99.90
59208;DHT22;44977;53.132;6.408;2023-02-28T21:08:56;2.50;99.90
59208;DHT22;44977;53.132;6.408;2023-02-28T21:13:59;2.40;99.90
59208;DHT22;44977;53.132;6.408;2023-02-28T21:19:00;2.30;99.90
59208;DHT22;44977;53.132;6.408;2023-02-28T21:24:04;2.30;99.90
59208;DHT22;44977;53.132;6.408;2023-02-28T21:29:05;2.20;99.90
59208;DHT22;44977;53.132;6.408;2023-02-28T21:34:07;2.20;99.90
59208;DHT22;44977;53.132;6.408;2023-02-28T21:39:21;2.10;99.90
59208;DHT22;44977;53.132;6.408;2023-02-28T21:44:24;2.10;99.90
59208;DHT22;44977;53.132;6.408;2023-02-28T21:49:27;2.00;99.90
59208;DHT22;44977;53.132;6.408;2023-02-28T21:54:28;2.00;99.90
59208;DHT22;44977;53.132;6.408;2023-02-28T21:59:29;1.80;99.90
59208;DHT22;44977;53.132;6.408;2023-02-28T22:04:30;1.80;99.90
59208;DHT22;44977;53.132;6.408;2023-02-28T22:09:31;1.70;99.90
59208;DHT22;44977;53.132;6.408;2023-02-28T22:14:31;1.70;99.90
59208;DHT22;44977;53.132;6.408;2023-02-28T22:19:33;1.60;99.90
59208;DHT22;44977;53.132;6.408;2023-02-28T22:24:35;1.50;99.90
59208;DHT22;44977;53.132;6.408;2023-02-28T22:29:36;1.50;99.90
59208;DHT22;44977;53.132;6.408;2023-02-28T22:34:36;1.40;99.90
59208;DHT22;44977;53.132;6.408;2023-02-28T22:39:37;1.40;99.90
59208;DHT22;44977;53.132;6.408;2023-02-28T22:44:38;1.30;99.90
59208;DHT22;44977;53.132;6.408;2023-02-28T22:49:38;1.20;99.90
59208;DHT22;44977;53.132;6.408;2023-02-28T22:54:39;1.20;99.90
59208;DHT22;44977;53.132;6.408;2023-02-28T22:59:39;1.20;99.90
59208;DHT22;44977;53.132;6.408;2023-02-28T23:04:40;1.10;99.90
59208;DHT22;44977;53.132;6.408;2023-02-28T23:09:41;1.10;99.90
59208;DHT22;44977;53.132;6.408;2023-02-28T23:14:42;1.00;99.90
59208;DHT22;44977;53.132;6.408;2023-02-28T23:19:43;1.00;99.90
59208;DHT22;44977;53.132;6.408;2023-02-28T23:24:43;0.90;99.90
59208;DHT22;44977;53.132;6.408;2023-02-28T23:29:44;0.90;99.90
59208;DHT22;44977;53.132;6.408;2023-02-28T23:34:45;0.80;99.90
59208;DHT22;44977;53.132;6.408;2023-02-28T23:39:46;0.80;99.90
59208;DHT22;44977;53.132;6.408;2023-02-28T23:44:46;0.70;99.90
59208;DHT22;44977;53.132;6.408;2023-02-28T23:49:47;0.70;99.90
59208;DHT22;44977;53.132;6.408;2023-02-28T23:54:48;0.60;99.90
59208;DHT22;44977;53.132;6.408;2023-02-28T23:59:48;0.60;99.90
